Time;durP1;ratioP1;P1;durP2;ratioP2;P2;SDS_P1;SDS_P2;PMS_P1;PMS_P2;Temp;Humidity;BMP_temperature;BMP_pressure;BME280_temperature;BME280_humidity;BME280_pressure;Samples;Min_cycle;Max_cycle;Signal;HPM_P1;HPM_P2
2022/03/11 00:01:30;;;;;;;3.30;2.80;;;;;;;-6.11;40.77;101791.48;1704686;81;21049;-64
2022/03/11 00:03:58;;;;;;;3.03;2.73;;;;;;;-6.13;40.76;101790.67;1707882;82;21625;-63
2022/03/11 00:06:25;;;;;;;;;;;;;;;-6.14;40.95;101780.75;1711017;82;21114;-65
2022/03/11 00:08:53;;;;;;;2.83;2.00;;;;;;;-6.13;40.79;101787.62;1710586;82;20514;-67
2022/03/11 00:11:20;;;;;;;2.70;2.00;;;;;;;-6.20;41.03;101789.16;1732736;82;21616;-64
2022/03/11 00:13:46;;;;;;;3.50;2.05;;;;;;;-6.22;40.92;101784.00;1700203;84;21033;-63
2022/03/11 00:16:13;;;;;;;;;;;;;;;-6.19;40.87;101780.03;1675489;84;21152;-65
2022/03/11 00:18:40;;;;;;;2.50;1.70;;;;;;;-6.17;40.83;101784.73;1671739;84;20167;-68
2022/03/11 00:21:12;;;;;;;3.13;1.70;;;;;;;-6.19;40.81;101786.52;1671831;84;21122;-65
2022/03/11 00:23:39;;;;;;;3.27;2.17;;;;;;;-6.18;40.77;101775.22;1685647;83;21178;-66
2022/03/11 00:26:06;;;;;;;2.47;1.30;;;;;;;-6.20;41.12;101778.77;1692587;83;21065;-63
2022/03/11 00:28:33;;;;;;;3.87;2.63;;;;;;;-6.30;41.37;101782.93;1692606;83;21121;-64
2022/03/11 00:31:04;;;;;;;2.47;2.27;;;;;;;-6.28;41.21;101778.55;1693476;83;21065;-63
2022/03/11 00:33:31;;;;;;;6.00;2.70;;;;;;;-6.30;41.13;101775.60;1693373;83;21174;-67
2022/03/11 00:35:58;;;;;;;2.60;1.97;;;;;;;-6.30;41.06;101779.49;1693600;83;21134;-70
2022/03/11 00:38:25;;;;;;;4.80;2.42;;;;;;;-6.30;41.32;101772.55;1686012;83;21070;-64
2022/03/11 00:40:56;;;;;;;6.57;2.60;;;;;;;-6.26;41.15;101775.45;1682092;83;21107;-64
2022/03/11 00:43:23;;;;;;;2.67;2.13;;;;;;;-6.25;41.00;101763.35;1692878;83;21627;-64
2022/03/11 00:45:50;;;;;;;2.80;2.17;;;;;;;-6.27;41.08;101770.34;1670836;84;21168;-66
2022/03/11 00:48:17;;;;;;;3.87;2.57;;;;;;;-6.31;41.00;101763.08;1671863;84;21307;-66
2022/03/11 00:50:44;;;;;;;3.30;2.30;;;;;;;-6.32;41.02;101766.56;1670034;84;21072;-66
2022/03/11 00:53:11;;;;;;;3.17;2.47;;;;;;;-6.32;40.90;101765.72;1670451;84;21071;-66
2022/03/11 00:55:41;;;;;;;4.23;3.23;;;;;;;-6.35;41.22;101769.69;1666310;84;21056;-64
2022/03/11 00:58:09;;;;;;;5.03;2.80;;;;;;;-6.35;41.22;101763.20;1660357;86;21634;-65
2022/03/11 01:00:36;;;;;;;4.13;2.20;;;;;;;-6.38;41.26;101763.31;1692796;83;21043;-66
2022/03/11 01:03:04;;;;;;;2.63;2.20;;;;;;;-6.37;41.16;101753.31;1693156;83;21832;-65
2022/03/11 01:05:31;;;;;;;3.87;2.07;;;;;;;-6.34;41.06;101756.67;1685475;83;21071;-66
2022/03/11 01:07:59;;;;;;;3.43;2.00;;;;;;;-6.33;41.03;101754.92;1693150;83;21092;-68
2022/03/11 01:10:26;;;;;;;3.83;2.63;;;;;;;-6.32;41.10;101752.74;1693229;83;20996;-64
2022/03/11 01:12:54;;;;;;;3.83;2.10;;;;;;;-6.33;41.20;101753.20;1693402;83;21174;-65
2022/03/11 01:15:22;;;;;;;4.17;2.37;;;;;;;-6.34;41.09;101752.78;1693448;83;21040;-65
2022/03/11 01:17:50;;;;;;;4.37;1.73;;;;;;;-6.35;41.07;101752.36;1693045;83;21150;-63
2022/03/11 01:20:17;;;;;;;4.07;2.40;;;;;;;-6.35;41.15;101750.23;1693602;83;21608;-63
2022/03/11 01:22:44;;;;;;;2.43;1.27;;;;;;;-6.35;41.13;101748.47;1692346;83;21090;-67
2022/03/11 01:25:12;;;;;;;2.87;1.77;;;;;;;-6.36;41.14;101748.09;1686154;83;21087;-65
2022/03/11 01:27:39;;;;;;;3.53;2.57;;;;;;;-6.37;41.13;101752.02;1670071;83;21127;-64
2022/03/11 01:30:09;;;;;;;3.17;1.90;;;;;;;-6.38;41.18;101747.28;1689965;83;21047;-71
2022/03/11 01:32:37;;;;;;;4.70;1.67;;;;;;;-6.35;41.01;101751.52;1686136;84;20982;-64
2022/03/11 01:35:05;;;;;;;3.60;2.00;;;;;;;-6.34;41.02;101754.08;1643072;85;21088;-64
2022/03/11 01:37:32;;;;;;;1.70;1.40;;;;;;;-6.33;40.82;101754.92;1710407;82;21042;-63
2022/03/11 01:39:59;;;;;;;;;;;;;;;-6.34;40.89;101754.08;1710758;82;21129;-68
2022/03/11 01:42:26;;;;;;;1.43;1.30;;;;;;;-6.32;40.90;101757.47;1691235;82;20128;-64
2022/03/11 01:44:53;;;;;;;4.23;1.70;;;;;;;-6.38;40.85;101756.37;1704328;82;21077;-66
2022/03/11 01:47:20;;;;;;;2.27;1.67;;;;;;;-6.38;40.94;101749.04;1693183;83;21101;-67
2022/03/11 01:49:46;;;;;;;;;;;;;;;-6.38;40.89;101742.55;1696366;83;21042;-66
2022/03/11 01:52:13;;;;;;;2.67;1.70;;;;;;;-6.40;41.20;101747.78;1692268;83;20166;-65
2022/03/11 01:54:43;;;;;;;3.03;2.03;;;;;;;-6.44;40.95;101750.49;1693124;83;21041;-64
2022/03/11 01:57:13;;;;;;;3.20;2.00;;;;;;;-6.44;41.07;101750.06;1684017;83;21722;-64
2022/03/11 01:59:43;;;;;;;3.80;2.67;;;;;;;-6.43;40.93;101740.08;1693655;83;21026;-64
2022/03/11 02:02:10;;;;;;;4.23;2.53;;;;;;;-6.49;41.19;101744.16;1690032;83;21077;-70
2022/03/11 02:04:37;;;;;;;2.60;2.10;;;;;;;-6.52;41.16;101750.72;1693151;83;21080;-64
2022/03/11 02:07:05;;;;;;;4.77;2.07;;;;;;;-6.58;41.32;101750.90;1657752;85;21615;-67
2022/03/11 02:09:32;;;;;;;2.43;1.57;;;;;;;-6.61;41.48;101754.44;1693277;83;21797;-64
2022/03/11 02:11:59;;;;;;;;;;;;;;;-6.61;41.51;101754.44;1696491;83;21048;-64
2022/03/11 02:14:26;;;;;;;2.13;1.90;;;;;;;-6.62;41.54;101759.21;1693517;83;20153;-65
2022/03/11 02:16:54;;;;;;;5.93;2.07;;;;;;;-6.67;41.57;101751.57;1693321;83;21060;-68
2022/03/11 02:19:24;;;;;;;2.20;2.00;;;;;;;-6.70;42.00;101759.88;1693564;83;21080;-69
2022/03/11 02:21:55;;;;;;;6.13;2.23;;;;;;;-6.73;41.84;101754.31;1693648;83;21158;-65
2022/03/11 02:24:27;;;;;;;2.83;1.67;;;;;;;-6.76;41.97;101751.83;1676628;83;21070;-64
2022/03/11 02:26:51;;;;;;;1.40;1.30;;;;;;;-6.73;41.88;101758.66;1693887;83;22330;-65
2022/03/11 02:29:18;;;;;;;;;;;;;;;-6.74;41.86;101747.87;1696098;83;21079;-64
2022/03/11 02:31:46;;;;;;;4.30;1.90;;;;;;;-6.80;42.27;101755.83;1693292;83;20150;-65
2022/03/11 02:34:13;;;;;;;2.25;1.60;;;;;;;-6.91;42.65;101753.09;1693003;82;21122;-69
2022/03/11 02:36:40;;;;;;;3.67;2.77;;;;;;;-6.94;42.53;101765.28;1693661;83;21047;-65
2022/03/11 02:39:07;;;;;;;2.87;2.33;;;;;;;-6.94;42.47;101765.28;1693659;83;21055;-65
2022/03/11 02:41:36;;;;;;;2.40;1.90;;;;;;;-6.91;42.44;101758.28;1693259;83;21092;-65
2022/03/11 02:44:05;;;;;;;13.30;2.97;;;;;;;-6.88;42.45;101765.95;1693245;83;21119;-67
2022/03/11 02:46:33;;;;;;;3.47;2.53;;;;;;;-6.87;42.34;101771.55;1693176;83;21301;-72
2022/03/11 02:49:00;;;;;;;3.83;2.53;;;;;;;-6.87;42.38;101777.20;1719837;82;21056;-64
2022/03/11 02:51:27;;;;;;;4.00;2.30;;;;;;;-6.91;42.48;101758.28;1693425;83;21094;-65
2022/03/11 02:53:53;;;;;;;3.95;2.15;;;;;;;-6.95;42.93;101770.05;1693397;83;21060;-66
2022/03/11 02:56:22;;;;;;;4.37;3.00;;;;;;;-7.02;43.20;101769.83;1692532;82;21094;-69
2022/03/11 02:58:49;;;;;;;9.27;2.83;;;;;;;-7.02;42.99;101771.12;1692435;83;21094;-64
2022/03/11 03:01:16;;;;;;;5.58;3.22;;;;;;;-7.03;43.08;101766.37;1693737;82;21095;-65
2022/03/11 03:03:45;;;;;;;4.93;3.33;;;;;;;-7.02;43.08;101770.67;1693526;83;21079;-71
2022/03/11 03:06:12;;;;;;;3.53;2.47;;;;;;;-7.02;43.12;101773.27;1693651;83;21025;-64
2022/03/11 03:08:40;;;;;;;3.80;3.40;;;;;;;-7.05;43.47;101774.63;1693576;83;21598;-65
2022/03/11 03:11:08;;;;;;;6.20;4.07;;;;;;;-7.05;43.31;101765.56;1693220;83;21216;-74
2022/03/11 03:13:34;;;;;;;6.78;4.58;;;;;;;-7.03;43.37;101765.52;1693845;83;21556;-69
2022/03/11 03:16:03;;;;;;;5.67;3.20;;;;;;;-7.04;43.29;101763.39;1693409;83;20988;-64
2022/03/11 03:18:32;;;;;;;6.47;3.67;;;;;;;-7.03;43.51;101765.52;1693488;83;21578;-67
2022/03/11 03:20:59;;;;;;;5.07;3.93;;;;;;;-7.06;43.48;101772.49;1693550;83;21039;-66
2022/03/11 03:23:26;;;;;;;4.92;3.15;;;;;;;-7.10;43.74;101760.51;1693652;82;21316;-68
2022/03/11 03:25:54;;;;;;;3.40;2.20;;;;;;;-7.12;43.61;101767.90;1693232;83;21593;-63
2022/03/11 03:28:21;;;;;;;5.20;4.70;;;;;;;-7.18;43.87;101754.66;1693540;83;21555;-64
2022/03/11 03:30:49;;;;;;;6.30;3.90;;;;;;;-7.17;43.83;101763.30;1692704;83;21110;-64
2022/03/11 03:33:19;;;;;;;4.83;3.50;;;;;;;-7.21;43.97;101760.36;1693292;82;21135;-64
2022/03/11 03:35:46;;;;;;;4.97;4.10;;;;;;;-7.24;44.05;101762.14;1693077;83;21154;-68
2022/03/11 03:38:13;;;;;;;3.58;3.02;;;;;;;-7.25;44.00;101768.23;1693299;83;21066;-65
2022/03/11 03:40:40;;;;;;;5.07;3.57;;;;;;;-7.26;44.05;101760.04;1693252;83;21155;-65
2022/03/11 03:43:07;;;;;;;4.93;3.00;;;;;;;-7.26;43.95;101760.49;1693521;83;21235;-70
2022/03/11 03:45:34;;;;;;;4.93;3.43;;;;;;;-7.34;44.49;101759.39;1693288;82;21438;-69
2022/03/11 03:48:01;;;;;;;;;;;;;;;-7.35;44.34;101767.20;1696025;83;21123;-67
2022/03/11 03:50:29;;;;;;;6.03;3.53;;;;;;;-7.38;44.41;101770.73;1692860;83;20173;-71
2022/03/11 03:52:55;;;;;;;5.70;2.97;;;;;;;-7.40;44.40;101771.63;1693378;83;21100;-70
2022/03/11 03:55:22;;;;;;;3.47;3.17;;;;;;;-7.40;44.56;101759.56;1691042;83;21571;-63
2022/03/11 03:57:49;;;;;;;;;;;;;;;-7.38;44.54;101753.89;1687337;83;21094;-64
2022/03/11 04:00:16;;;;;;;3.03;2.27;;;;;;;-7.37;44.54;101762.05;1674448;83;20151;-71
2022/03/11 04:02:50;;;;;;;6.60;3.23;;;;;;;-7.45;44.75;101767.88;1692680;83;21094;-65
2022/03/11 04:05:18;;;;;;;5.87;3.60;;;;;;;-7.44;44.73;101762.66;1693138;83;21078;-67
2022/03/11 04:07:48;;;;;;;8.43;3.60;;;;;;;-7.44;44.84;101757.91;1693481;83;21036;-64
2022/03/11 04:10:17;;;;;;;3.80;3.10;;;;;;;-7.42;44.65;101761.76;1674606;83;21719;-65
2022/03/11 04:12:57;;;;;;;4.17;3.27;;;;;;;-7.49;45.07;101765.80;1679974;83;21064;-66
2022/03/11 04:15:24;;;;;;;3.80;3.50;;;;;;;-7.53;44.99;101764.19;1687408;84;21013;-65
2022/03/11 04:17:52;;;;;;;4.13;3.30;;;;;;;-7.53;45.00;101767.23;1681088;84;21581;-64
2022/03/11 04:20:19;;;;;;;4.47;3.75;;;;;;;-7.53;45.13;101771.95;1686741;84;21044;-64
2022/03/11 04:22:46;;;;;;;4.80;3.20;;;;;;;-7.50;45.17;101773.61;1688552;83;21103;-64
2022/03/11 04:25:15;;;;;;;5.33;3.27;;;;;;;-7.49;45.02;101777.45;1704178;83;21052;-64
2022/03/11 04:27:43;;;;;;;5.20;3.87;;;;;;;-7.49;45.13;101776.16;1681575;84;21232;-67
2022/03/11 04:30:12;;;;;;;6.47;3.07;;;;;;;-7.49;45.09;101774.88;1685249;84;21143;-69
2022/03/11 04:32:38;;;;;;;3.87;3.57;;;;;;;-7.44;45.04;101773.45;1686046;84;21076;-64
2022/03/11 04:35:05;;;;;;;;;;;;;;;-7.47;45.09;101779.56;1689075;83;21001;-65
2022/03/11 04:37:34;;;;;;;3.50;3.20;;;;;;;-7.50;45.19;101776.20;1687417;83;20172;-68
2022/03/11 04:40:00;;;;;;;3.83;2.87;;;;;;;-7.54;45.28;101773.28;1690345;83;21147;-64
2022/03/11 04:42:27;;;;;;;;;;;;;;;-7.53;45.32;101775.00;1701855;83;21581;-68
2022/03/11 04:44:55;;;;;;;4.53;3.10;;;;;;;-7.51;45.34;101777.09;1684913;85;20188;-64
2022/03/11 04:47:22;;;;;;;;;;;;;;;-7.49;45.67;101784.39;1685986;84;21103;-64
2022/03/11 04:49:52;;;;;;;2.70;2.10;;;;;;;-7.24;45.33;101776.84;1682719;85;20219;-67
2022/03/11 04:52:19;;;;;;;3.17;2.17;;;;;;;-6.70;44.72;101791.84;1685225;83;21041;-64
2022/03/11 04:54:47;;;;;;;5.03;3.33;;;;;;;-6.02;43.38;101788.61;1688651;83;21226;-66
2022/03/11 04:57:15;;;;;;;3.33;2.07;;;;;;;-5.52;42.16;101790.06;1687868;83;21071;-67
2022/03/11 04:59:43;;;;;;;3.77;1.87;;;;;;;-5.00;41.41;101797.87;1704353;83;21052;-65
2022/03/11 05:02:11;;;;;;;5.77;2.17;;;;;;;-4.37;40.12;101797.39;1685549;83;21092;-71
2022/03/11 05:04:38;;;;;;;2.47;1.83;;;;;;;-3.94;38.99;101798.38;1686723;83;21099;-66
2022/03/11 05:07:07;;;;;;;4.70;2.00;;;;;;;-3.48;38.52;101799.19;1686084;83;21163;-66
2022/03/11 05:09:33;;;;;;;2.47;2.07;;;;;;;-2.91;37.89;101799.91;1686617;83;21052;-65
2022/03/11 05:12:02;;;;;;;4.05;2.40;;;;;;;-2.38;36.76;101811.90;1693007;83;21531;-70
2022/03/11 05:14:29;;;;;;;2.93;1.73;;;;;;;-1.89;35.91;101786.59;1699023;83;21075;-71
2022/03/11 05:16:56;;;;;;;3.40;1.70;;;;;;;-1.55;34.35;101798.06;1705146;83;21009;-65
2022/03/11 05:19:24;;;;;;;;;;;;;;;-1.39;34.95;101797.71;1691151;83;21029;-65
2022/03/11 05:21:51;;;;;;;2.50;0.88;;;;;;;-1.29;34.19;101802.49;1685993;83;20199;-65
2022/03/11 05:24:19;;;;;;;3.97;2.10;;;;;;;-1.37;33.80;101791.10;1686314;83;21076;-64
2022/03/11 05:26:48;;;;;;;4.27;2.10;;;;;;;-1.20;33.86;101798.95;1685641;83;21088;-65
2022/03/11 05:29:16;;;;;;;11.03;2.83;;;;;;;-1.19;33.77;101790.20;1686588;83;21076;-66
2022/03/11 05:31:46;;;;;;;3.10;1.97;;;;;;;-0.96;33.52;101795.17;1685377;84;21068;-65
2022/03/11 05:34:13;;;;;;;5.53;2.70;;;;;;;-0.68;32.99;101795.47;1685363;83;21059;-68
2022/03/11 05:36:40;;;;;;;2.42;1.90;;;;;;;-0.77;32.94;101794.64;1685850;84;22350;-70
2022/03/11 05:39:07;;;;;;;4.15;2.67;;;;;;;-0.82;33.18;101793.55;1701049;83;21501;-64
2022/03/11 05:41:35;;;;;;;4.90;1.87;;;;;;;-0.61;32.92;101791.58;1691086;83;22297;-66
2022/03/11 05:44:03;;;;;;;4.13;2.10;;;;;;;-0.30;32.57;101789.98;1686030;83;21069;-65
2022/03/11 05:46:30;;;;;;;3.77;2.57;;;;;;;-0.37;32.18;101783.37;1685758;83;21084;-66
2022/03/11 05:48:56;;;;;;;2.60;2.25;;;;;;;-0.38;32.58;101802.63;1689291;83;20985;-66
2022/03/11 05:51:23;;;;;;;;;;;;;;;-0.39;32.30;101786.53;1704462;83;21128;-64
2022/03/11 05:53:49;;;;;;;7.27;3.03;;;;;;;-0.59;32.82;101793.66;1685799;83;20219;-69
2022/03/11 05:56:16;;;;;;;;;;;;;;;-0.28;32.42;101789.42;1678398;83;21011;-66
2022/03/11 05:58:43;;;;;;;3.60;3.30;;;;;;;0.13;31.82;101804.69;1694408;83;20151;-66
2022/03/11 06:01:10;;;;;;;5.72;1.77;;;;;;;0.22;31.36;101801.16;1696171;83;21805;-66
2022/03/11 06:03:38;;;;;;;2.20;2.00;;;;;;;0.35;30.87;101804.79;1695967;83;21113;-66
2022/03/11 06:06:05;;;;;;;3.23;2.27;;;;;;;0.12;31.11;101810.84;1714121;83;21090;-64
2022/03/11 06:08:32;;;;;;;6.77;2.70;;;;;;;0.03;30.70;101800.86;1714145;83;21095;-68
2022/03/11 06:10:58;;;;;;;;;;;;;;;0.10;30.66;101798.77;1714596;83;21172;-65
2022/03/11 06:13:25;;;;;;;4.27;2.13;;;;;;;0.23;30.67;101811.58;1662761;83;21314;-65
2022/03/11 06:15:52;;;;;;;;;;;;;;;0.13;30.52;101802.06;1668277;85;21074;-66
2022/03/11 06:18:20;;;;;;;;;;;;;;;-0.31;30.88;101801.38;1676354;84;20145;-64
2022/03/11 06:20:47;;;;;;;5.47;2.07;;;;;;;-0.97;31.73;101798.27;1660335;85;20144;-67
2022/03/11 06:23:14;;;;;;;;;;;;;;;-1.38;32.42;101805.92;1672022;84;22133;-70
2022/03/11 06:25:42;;;;;;;3.77;1.70;;;;;;;-1.08;32.11;101805.34;1679650;85;20197;-64
2022/03/11 06:28:09;;;;;;;8.17;2.23;;;;;;;-0.62;31.87;101805.63;1684898;84;21123;-70
2022/03/11 06:30:36;;;;;;;5.30;1.93;;;;;;;-0.21;30.45;101831.86;1665028;85;21615;-64
2022/03/11 06:33:02;;;;;;;2.60;1.52;;;;;;;-0.14;30.35;101799.63;1697451;83;21186;-65
2022/03/11 06:35:30;;;;;;;1.95;1.20;;;;;;;-0.31;30.02;101809.23;1686581;84;21068;-69
2022/03/11 06:37:57;;;;;;;1.40;1.00;;;;;;;-0.92;30.57;101801.50;1659222;85;21145;-67
2022/03/11 06:40:24;;;;;;;4.22;1.05;;;;;;;-2.05;32.13;101803.94;1686882;83;21097;-71
2022/03/11 06:42:53;;;;;;;5.10;2.13;;;;;;;-2.80;33.16;101806.81;1703337;83;21005;-67
2022/03/11 06:45:21;;;;;;;1.27;1.17;;;;;;;-3.48;33.56;101795.28;1691713;83;21095;-65
2022/03/11 06:47:48;;;;;;;3.57;1.43;;;;;;;-3.84;34.02;101797.14;1683997;83;21040;-65
2022/03/11 06:50:16;;;;;;;1.27;0.87;;;;;;;-4.09;34.88;101801.11;1680937;83;21122;-65
2022/03/11 06:52:44;;;;;;;8.87;0.93;;;;;;;-4.33;35.68;101784.68;1682205;84;21441;-69
2022/03/11 06:55:13;;;;;;;2.97;1.57;;;;;;;-4.51;35.27;101806.55;1684662;84;21048;-69
2022/03/11 06:57:40;;;;;;;1.83;0.83;;;;;;;-4.52;35.24;101796.19;1671907;84;21101;-65
2022/03/11 07:00:09;;;;;;;0.72;0.68;;;;;;;-4.57;35.50;101793.77;1681204;84;21595;-65
2022/03/11 07:02:37;;;;;;;2.30;1.47;;;;;;;-4.57;34.99;101798.97;1690601;84;21083;-69
2022/03/11 07:05:06;;;;;;;3.03;0.80;;;;;;;-4.61;35.67;101793.48;1657277;84;21116;-64
2022/03/11 07:07:33;;;;;;;4.80;1.03;;;;;;;-4.59;35.25;101791.67;1681730;84;21035;-64
2022/03/11 07:10:04;;;;;;;2.00;1.17;;;;;;;-4.48;34.85;101793.02;1651706;84;21107;-64
2022/03/11 07:12:34;;;;;;;1.27;1.03;;;;;;;-4.52;34.93;101790.55;1687015;84;21071;-67
2022/03/11 07:15:06;;;;;;;2.83;1.17;;;;;;;-4.50;34.78;101793.95;1667750;84;21519;-63
2022/03/11 07:17:34;;;;;;;4.77;1.63;;;;;;;-4.47;35.11;101792.14;1693160;84;21004;-64
2022/03/11 07:20:00;;;;;;;;;;;;;;;-4.36;35.28;101792.59;1698452;84;21619;-64
2022/03/11 07:22:28;;;;;;;1.90;1.27;;;;;;;-4.19;34.80;101790.20;1695890;84;20189;-66
2022/03/11 07:24:56;;;;;;;0.60;0.60;;;;;;;-4.10;34.50;101792.92;1686251;84;21160;-64
2022/03/11 07:27:24;;;;;;;6.53;1.37;;;;;;;-4.07;33.94;101811.02;1686114;84;21016;-65
2022/03/11 07:29:53;;;;;;;0.97;0.83;;;;;;;-4.09;34.27;101801.11;1673171;84;21074;-66
2022/03/11 07:32:20;;;;;;;2.30;0.73;;;;;;;-4.21;34.33;101789.41;1677774;84;21047;-64
2022/03/11 07:34:48;;;;;;;2.83;0.87;;;;;;;-4.26;33.72;101790.49;1695849;83;21611;-69
2022/03/11 07:37:16;;;;;;;2.47;1.20;;;;;;;-4.33;34.29;101808.11;1671021;84;21131;-63
2022/03/11 07:39:44;;;;;;;3.17;1.53;;;;;;;-4.29;33.72;101786.26;1688812;84;21048;-65
2022/03/11 07:42:12;;;;;;;0.63;0.40;;;;;;;-4.17;34.08;101809.22;1676025;84;21055;-64
2022/03/11 07:44:42;;;;;;;1.80;0.70;;;;;;;-4.01;33.91;101790.41;1693308;84;21614;-67
2022/03/11 07:47:09;;;;;;;1.00;0.90;;;;;;;-3.93;33.13;101794.42;1693416;83;21076;-65
2022/03/11 07:49:36;;;;;;;3.87;1.10;;;;;;;-3.83;32.45;101824.88;1693576;85;21068;-64
2022/03/11 07:52:05;;;;;;;1.02;0.70;;;;;;;-3.75;33.15;101799.81;1693570;83;21136;-64
2022/03/11 07:54:33;;;;;;;2.27;0.90;;;;;;;-3.60;32.33;101834.86;1673990;84;21472;-65
2022/03/11 07:56:59;;;;;;;;;;;;;;;-3.52;31.88;101810.66;1687836;84;21310;-70
2022/03/11 07:59:29;;;;;;;1.47;0.87;;;;;;;-3.50;32.26;101794.50;1651340;85;20929;-65
2022/03/11 08:01:54;;;;;;;8.07;1.13;;;;;;;-3.52;31.86;101798.47;1679429;85;21558;-67
2022/03/11 08:04:22;;;;;;;;;;;;;;;-3.41;31.66;101785.00;1676459;83;22245;-66
2022/03/11 08:06:49;;;;;;;1.70;0.72;;;;;;;-3.30;31.63;101794.97;1673774;83;20201;-63
2022/03/11 08:09:16;;;;;;;;;;;;;;;-3.24;31.62;101801.27;1693864;84;21036;-64
2022/03/11 08:11:44;;;;;;;4.37;0.80;;;;;;;-3.15;31.42;101790.41;1670336;84;20129;-64
2022/03/11 08:14:13;;;;;;;1.40;0.70;;;;;;;-3.11;31.62;101780.70;1671769;85;21068;-63
2022/03/11 08:16:41;;;;;;;4.27;1.23;;;;;;;-3.02;31.06;101788.61;1680436;85;21127;-64
2022/03/11 08:19:09;;;;;;;2.10;1.20;;;;;;;-2.91;31.16;101794.69;1673846;83;21043;-68
2022/03/11 08:21:36;;;;;;;0.63;0.60;;;;;;;-2.88;30.81;101786.70;1693064;84;21109;-66
2022/03/11 08:24:04;;;;;;;5.45;0.60;;;;;;;-2.95;31.11;101785.67;1693505;84;21107;-66
2022/03/11 08:26:31;;;;;;;1.50;0.90;;;;;;;-2.99;31.43;101782.81;1693120;84;21131;-68
2022/03/11 08:28:58;;;;;;;;;;;;;;;-2.87;31.08;101767.54;1695784;84;21163;-64
2022/03/11 08:31:24;;;;;;;6.60;0.53;;;;;;;-2.75;30.38;101780.04;1692428;84;20160;-65
2022/03/11 08:33:53;;;;;;;6.30;0.73;;;;;;;-2.69;30.66;101803.72;1675251;84;21060;-66
2022/03/11 08:36:19;;;;;;;1.33;0.63;;;;;;;-2.69;30.22;101808.94;1691920;84;21524;-65
2022/03/11 08:38:46;;;;;;;;;;;;;;;-2.69;31.09;101782.41;1690082;85;20957;-65
2022/03/11 08:41:13;;;;;;;1.07;0.70;;;;;;;-2.62;31.12;101765.56;1667920;85;20150;-64
2022/03/11 08:43:41;;;;;;;1.55;1.00;;;;;;;-2.55;29.43;101806.12;1667814;85;21063;-66
2022/03/11 08:46:09;;;;;;;4.07;0.70;;;;;;;-2.56;30.01;101773.11;1689578;84;21167;-65
2022/03/11 08:48:37;;;;;;;4.87;0.80;;;;;;;-2.55;29.67;101767.42;1693333;85;21043;-67
2022/03/11 08:51:06;;;;;;;1.77;0.70;;;;;;;-2.52;29.21;101777.74;1692945;84;21084;-65
2022/03/11 08:53:34;;;;;;;1.70;0.53;;;;;;;-2.53;29.55;101766.89;1693580;83;21060;-66
2022/03/11 08:56:03;;;;;;;;;;;;;;;-2.52;29.87;101786.01;1679066;84;21415;-69
2022/03/11 08:58:31;;;;;;;2.13;0.83;;;;;;;-2.46;30.24;101779.23;1693254;83;20144;-68
2022/03/11 09:00:57;;;;;;;;;;;;;;;-2.43;29.88;101771.23;1696096;84;21615;-65
2022/03/11 09:03:26;;;;;;;;;;;;;;;-2.42;29.41;101802.98;1687302;85;20147;-65
2022/03/11 09:05:54;;;;;;;3.60;0.53;;;;;;;-2.41;30.40;101766.79;1682581;85;20911;-63
2022/03/11 09:08:21;;;;;;;3.58;0.90;;;;;;;-2.35;30.29;101775.67;1689882;85;21052;-64
2022/03/11 09:10:49;;;;;;;3.23;0.87;;;;;;;-2.25;29.18;101771.72;1665639;85;22172;-65
2022/03/11 09:13:17;;;;;;;2.00;0.75;;;;;;;-2.18;29.59;101771.83;1687651;85;21599;-63
2022/03/11 09:15:43;;;;;;;1.30;0.90;;;;;;;-2.10;28.91;101758.41;1669647;85;21508;-64
2022/03/11 09:18:10;;;;;;;2.23;0.63;;;;;;;-2.03;29.28;101768.97;1693550;84;21155;-71
2022/03/11 09:20:38;;;;;;;;;;;;;;;-2.05;29.24;101775.19;1696332;85;21099;-69
2022/03/11 09:23:06;;;;;;;3.23;0.60;;;;;;;-2.07;29.47;101770.47;1665848;85;20410;-65
2022/03/11 09:25:33;;;;;;;6.23;0.87;;;;;;;-2.09;28.54;101835.02;1667992;85;21044;-67
2022/03/11 09:27:59;;;;;;;1.85;1.00;;;;;;;-2.07;28.14;101780.92;1688823;85;21048;-64
2022/03/11 09:30:26;;;;;;;4.12;1.25;;;;;;;-2.02;28.94;101775.87;1693655;85;21052;-64
2022/03/11 09:32:52;;;;;;;;;;;;;;;-1.97;29.25;101786.13;1695927;83;21099;-66
2022/03/11 09:35:19;;;;;;;1.63;1.13;;;;;;;-1.88;28.38;101821.45;1693684;84;20110;-66
2022/03/11 09:37:47;;;;;;;1.12;0.50;;;;;;;-1.89;28.24;101774.84;1675806;84;21056;-65
2022/03/11 09:40:16;;;;;;;4.73;0.60;;;;;;;-1.80;28.21;101790.09;1692449;85;21019;-66
2022/03/11 09:42:45;;;;;;;3.17;0.90;;;;;;;-1.80;27.78;101777.48;1693027;85;21060;-64
2022/03/11 09:45:12;;;;;;;5.27;2.27;;;;;;;-1.74;27.86;101790.73;1693420;83;21140;-70
2022/03/11 09:47:40;;;;;;;6.10;1.03;;;;;;;-1.74;27.79;101799.87;1688515;83;21068;-64
2022/03/11 09:50:07;;;;;;;5.00;1.13;;;;;;;-1.71;27.84;101794.48;1685638;85;21059;-69
2022/03/11 09:52:36;;;;;;;3.67;0.60;;;;;;;-1.66;27.66;101789.89;1673862;83;21013;-64
2022/03/11 09:55:05;;;;;;;2.87;0.60;;;;;;;-1.67;26.73;101849.19;1693510;84;21572;-65
2022/03/11 09:57:32;;;;;;;4.07;0.90;;;;;;;-1.69;27.38;101826.19;1670577;85;21016;-64
2022/03/11 09:59:58;;;;;;;;;;;;;;;-1.68;27.58;101779.97;1686241;84;21064;-66
2022/03/11 10:03:23;;;;;;;4.20;1.23;;;;;;;-1.53;28.07;101764.00;1848825;76;22353;-64
2022/03/11 10:05:54;;;;;;;1.70;1.50;;;;;;;-1.50;28.24;101777.77;1831145;77;21090;-67
2022/03/11 10:08:32;;;;;;;5.13;1.03;;;;;;;-1.46;28.08;101769.32;1857145;76;21481;-65
2022/03/11 10:11:22;;;;;;;2.07;1.27;;;;;;;-1.46;27.42;101775.39;1858727;76;21026;-65
2022/03/11 10:13:52;;;;;;;3.80;1.00;;;;;;;-1.43;27.31;101792.69;1860399;76;21020;-66
2022/03/11 10:16:25;;;;;;;6.40;1.13;;;;;;;-1.41;28.08;101768.64;1828192;76;20982;-67
2022/03/11 10:19:14;;;;;;;1.70;1.23;;;;;;;-1.35;27.16;101754.41;1862763;77;20987;-66
2022/03/11 10:21:53;;;;;;;3.53;1.67;;;;;;;-1.35;27.45;101763.56;1840334;77;20987;-64
2022/03/11 10:24:30;;;;;;;3.97;1.23;;;;;;;-1.31;27.37;101741.09;1797216;77;21120;-67
2022/03/11 10:27:02;;;;;;;4.43;1.20;;;;;;;-1.24;27.65;101776.95;1765526;80;21073;-65
2022/03/11 10:29:34;;;;;;;6.20;0.83;;;;;;;-1.15;26.50;101782.17;1775000;79;21052;-65
2022/03/11 10:32:03;;;;;;;0.73;0.40;;;;;;;-1.14;26.82;101781.27;1799806;79;21003;-66
2022/03/11 10:34:37;;;;;;;1.57;0.33;;;;;;;-1.17;26.93;101748.23;1765930;79;21596;-65
2022/03/11 10:37:12;;;;;;;8.57;1.60;;;;;;;-1.12;26.78;101748.02;1783012;80;20997;-64
2022/03/11 10:39:47;;;;;;;1.70;0.43;;;;;;;-1.04;26.35;101768.09;1795657;79;21536;-66
2022/03/11 10:42:27;;;;;;;5.50;0.40;;;;;;;-0.91;26.83;101756.53;1790268;79;20985;-64
2022/03/11 10:45:05;;;;;;;5.13;0.47;;;;;;;-0.81;26.61;101767.77;1775093;80;21534;-68
2022/03/11 10:47:38;;;;;;;3.13;0.67;;;;;;;-0.69;26.67;101768.89;1734525;81;21034;-66
2022/03/11 10:50:15;;;;;;;1.27;0.30;;;;;;;-0.65;25.78;101776.13;1728102;81;20997;-65
2022/03/11 10:52:46;;;;;;;5.03;0.40;;;;;;;-0.68;25.99;101769.73;1724590;81;21056;-69
2022/03/11 10:55:29;;;;;;;2.03;0.40;;;;;;;-0.69;25.82;101762.34;1746011;81;20988;-68
2022/03/11 10:57:59;;;;;;;2.63;0.40;;;;;;;-0.75;26.12;101755.26;1748335;81;21150;-68
2022/03/11 11:00:32;;;;;;;4.50;0.20;;;;;;;-0.74;26.33;101739.47;1729720;81;21013;-65
2022/03/11 11:03:02;;;;;;;6.67;1.53;;;;;;;-0.66;26.57;101742.99;1712276;82;21078;-65
2022/03/11 11:05:30;;;;;;;3.70;0.80;;;;;;;-0.61;26.08;101730.51;1748743;81;20968;-68
2022/03/11 11:07:59;;;;;;;1.30;0.63;;;;;;;-0.60;25.74;101751.38;1745961;81;21020;-65
2022/03/11 11:10:30;;;;;;;4.07;0.20;;;;;;;-0.66;25.82;101749.09;1744327;82;21107;-64
2022/03/11 11:12:58;;;;;;;0.60;0.30;;;;;;;-0.64;25.57;101785.66;1713454;82;21066;-65
2022/03/11 11:15:25;;;;;;;1.13;0.40;;;;;;;-0.65;25.94;101744.70;1681226;84;21173;-67
2022/03/11 11:17:54;;;;;;;2.10;0.30;;;;;;;-0.60;26.17;101757.94;1681519;84;21544;-64
2022/03/11 11:20:40;;;;;;;3.50;0.50;;;;;;;-0.49;26.50;101748.64;1683364;85;21039;-65
2022/03/11 11:23:10;;;;;;;1.10;0.30;;;;;;;-0.41;26.51;101748.63;1642370;86;21583;-66
2022/03/11 11:25:38;;;;;;;4.23;0.50;;;;;;;-0.30;25.79;101754.60;1685115;83;21080;-70
2022/03/11 11:28:13;;;;;;;0.73;0.20;;;;;;;-0.24;25.99;101746.40;1690202;83;21076;-66
2022/03/11 11:30:41;;;;;;;1.03;0.40;;;;;;;-0.20;26.14;101717.78;1697618;83;21552;-65
2022/03/11 11:33:09;;;;;;;0.50;0.33;;;;;;;-0.20;25.95;101716.95;1684712;83;21016;-65
2022/03/11 11:35:41;;;;;;;2.47;0.67;;;;;;;-0.19;25.94;101719.93;1706422;83;21066;-70
2022/03/11 11:38:37;;;;;;;0.33;0.20;;;;;;;-0.18;25.95;101752.25;1700560;83;21572;-64